METAR rapporter

 

EKAH - Tirstrup (civ/Mi, Denmark
Afstand fra stationen: SSV 25km
Opdateret: 21/09/2020 14:20
Få skyer
Få skyer
 Vind fra SV
Vind: SV 11 km/h
Temperatur: 16°C
Dugpunkt: 12°C
Fugtighed: 77%
Barometer: 1018 hPa
Skydække: Få skyer
Sigtbarhed: 10 km
Skyhøjde: Få skyer 335 m
2020/09/21 12:20 EKAH 211220Z AUTO 23006KT 170V280 9999NDV FEW011/// 16/12 Q1018
EKYT - Alborg, Denmark
Afstand fra stationen: NV 91km
Opdateret: 21/09/2020 14:20
Overskyet
Overskyet
 Vind fra VSV
Vind: VSV 22 km/h
Temperatur: 15°C
Dugpunkt: 12°C
Fugtighed: 82%
Barometer: 1016 hPa
Skydække: Overskyet
Sigtbarhed: 10 km
Skyhøjde: Få skyer 457 m
Overskyet 549 m
2020/09/21 12:20 EKYT 211220Z AUTO 25012KT 9999 FEW015/// OVC018/// 15/12 Q1016
EKKA - Karup (dan-Afb), Denmark
Afstand fra stationen: V 107km
Opdateret: 21/09/2020 14:20
Få skyer
Få skyer
 Vind fra SV
Vind: SV 15 km/h
Temperatur: 18°C
Dugpunkt: 12°C
Fugtighed: 68%
Barometer: 1017 hPa
Skydække: Få skyer
Sigtbarhed: 10 km
Skyhøjde: Få skyer 640 m
2020/09/21 12:20 EKKA 211220Z AUTO 22008KT 180V250 9999 FEW021/// 18/12 Q1017 NOSIG
 
EKOD - Odense/Beldringe, Denmark
Afstand fra stationen: SSV 116km
Opdateret: 21/09/2020 13:20
Ikke opdateret
Delvist skyet
Delvist skyet
 Vind fra SV
Vind: SV 4 km/h
Temperatur: 14°C
Dugpunkt: 13°C
Fugtighed: 94%
Barometer: 1018 hPa
Skydække: Delvist skyet
Sigtbarhed: 10 km
Skyhøjde: Få skyer 122 m
Delvist skyet 213 m
2020/09/21 11:20 EKOD 211120Z 23002KT 9999 FEW004 SCT007 14/13 Q1018
EKBI - Billund Airport, Denmark
Afstand fra stationen: SV 134km
Opdateret: 21/09/2020 14:20
Klart
Klart
 Vind fra V
Vind: V 6 km/h
Temperatur: 17°C
Dugpunkt: 11°C
Fugtighed: 68%
Barometer: 1018 hPa
Skydække: Klart
Sigtbarhed: 10 km
2020/09/21 12:20 EKBI 211220Z AUTO 26003KT 9999 NCD 17/11 Q1018
EKCH - Copenhagen/Kastr, Denmark
Afstand fra stationen: SØ 148km
Opdateret: 21/09/2020 14:20
Få skyer
Få skyer
 Vind fra SSØ
Vind: SSØ 11 km/h
Temperatur: 17°C
Dugpunkt: 12°C
Fugtighed: 73%
Barometer: 1018 hPa
Skydække: Få skyer
Sigtbarhed: 10 km
Skyhøjde: Få skyer 396 m
2020/09/21 12:20 EKCH 211220Z AUTO 16006KT 130V220 9999 FEW013/// 17/12 Q1018 NOSIG